sensor_id;sensor_type;location;lat;lon;timestamp;pressure;altitude;pressure_sealevel;temperature;humidity
55610;BME280;41486;52.502;13.486;2024-03-02T16:13:34;100178.00;;;12.53;100.00
55610;BME280;41486;52.502;13.486;2024-03-02T16:16:03;100178.19;;;12.41;100.00
55610;BME280;41486;52.502;13.486;2024-03-02T16:18:31;100175.41;;;12.33;100.00
55610;BME280;41486;52.502;13.486;2024-03-02T16:21:02;100180.13;;;12.29;100.00
55610;BME280;41486;52.502;13.486;2024-03-02T16:23:31;100174.28;;;12.36;100.00
55610;BME280;41486;52.502;13.486;2024-03-02T16:25:59;100187.06;;;12.30;100.00
55610;BME280;41486;52.502;13.486;2024-03-02T16:28:27;100184.59;;;12.09;100.00
55610;BME280;41486;52.502;13.486;2024-03-02T16:30:56;100186.94;;;12.12;100.00
55610;BME280;41486;52.502;13.486;2024-03-02T16:33:24;100182.38;;;12.05;100.00
55610;BME280;41486;52.502;13.486;2024-03-02T16:35:52;100183.88;;;11.97;100.00
55610;BME280;41486;52.502;13.486;2024-03-02T16:38:21;100178.31;;;12.01;100.00
55610;BME280;41486;52.502;13.486;2024-03-02T16:40:49;100183.88;;;11.97;100.00
55610;BME280;41486;52.502;13.486;2024-03-02T16:43:17;100175.66;;;11.81;100.00
55610;BME280;41486;52.502;13.486;2024-03-02T16:45:46;100186.59;;;11.76;100.00
55610;BME280;41486;52.502;13.486;2024-03-02T16:48:16;100183.94;;;11.66;100.00
55610;BME280;41486;52.502;13.486;2024-03-02T16:50:45;100194.44;;;11.57;100.00
55610;BME280;41486;52.502;13.486;2024-03-02T16:53:13;100189.19;;;11.57;100.00
55610;BME280;41486;52.502;13.486;2024-03-02T16:55:43;100186.28;;;11.60;100.00
55610;BME280;41486;52.502;13.486;2024-03-02T16:58:11;100181.97;;;11.49;100.00
55610;BME280;41486;52.502;13.486;2024-03-02T17:00:39;100176.13;;;11.45;100.00
55610;BME280;41486;52.502;13.486;2024-03-02T17:03:07;100179.84;;;11.43;100.00
55610;BME280;41486;52.502;13.486;2024-03-02T17:05:37;100187.25;;;11.49;100.00
55610;BME280;41486;52.502;13.486;2024-03-02T17:08:06;100185.44;;;11.49;100.00
55610;BME280;41486;52.502;13.486;2024-03-02T17:10:34;100194.53;;;11.35;100.00
55610;BME280;41486;52.502;13.486;2024-03-02T17:13:02;100198.13;;;11.34;100.00
55610;BME280;41486;52.502;13.486;2024-03-02T17:15:31;100203.22;;;11.26;100.00
55610;BME280;41486;52.502;13.486;2024-03-02T17:17:59;100210.56;;;11.23;100.00
55610;BME280;41486;52.502;13.486;2024-03-02T17:20:28;100207.53;;;11.27;100.00
55610;BME280;41486;52.502;13.486;2024-03-02T17:22:57;100208.09;;;11.31;100.00
55610;BME280;41486;52.502;13.486;2024-03-02T17:25:25;100207.97;;;11.32;100.00
55610;BME280;41486;52.502;13.486;2024-03-02T17:27:56;100212.19;;;11.14;100.00
55610;BME280;41486;52.502;13.486;2024-03-02T17:30:44;100209.69;;;11.12;100.00
55610;BME280;41486;52.502;13.486;2024-03-02T17:33:12;100214.13;;;11.12;100.00
55610;BME280;41486;52.502;13.486;2024-03-02T17:35:41;100212.97;;;11.04;100.00
55610;BME280;41486;52.502;13.486;2024-03-02T17:38:14;100205.41;;;10.90;100.00
55610;BME280;41486;52.502;13.486;2024-03-02T17:40:42;100207.81;;;10.93;100.00
55610;BME280;41486;52.502;13.486;2024-03-02T17:43:11;100208.69;;;10.82;100.00
55610;BME280;41486;52.502;13.486;2024-03-02T17:45:39;100206.81;;;10.94;100.00
55610;BME280;41486;52.502;13.486;2024-03-02T17:48:08;100218.53;;;10.80;100.00
55610;BME280;41486;52.502;13.486;2024-03-02T17:50:38;100221.22;;;10.90;100.00
55610;BME280;41486;52.502;13.486;2024-03-02T17:53:06;100222.00;;;10.81;100.00
55610;BME280;41486;52.502;13.486;2024-03-02T17:55:36;100226.09;;;10.73;100.00
55610;BME280;41486;52.502;13.486;2024-03-02T17:58:04;100224.50;;;10.61;100.00
55610;BME280;41486;52.502;13.486;2024-03-02T18:00:32;100231.03;;;10.67;100.00
55610;BME280;41486;52.502;13.486;2024-03-02T18:03:00;100227.25;;;10.60;100.00
55610;BME280;41486;52.502;13.486;2024-03-02T18:05:28;100231.63;;;10.49;100.00
55610;BME280;41486;52.502;13.486;2024-03-02T18:07:56;100229.13;;;10.69;100.00
55610;BME280;41486;52.502;13.486;2024-03-02T18:10:24;100234.75;;;10.64;100.00
55610;BME280;41486;52.502;13.486;2024-03-02T18:12:56;100237.53;;;10.63;100.00
55610;BME280;41486;52.502;13.486;2024-03-02T18:15:24;100230.97;;;10.57;100.00
55610;BME280;41486;52.502;13.486;2024-03-02T18:17:52;100233.38;;;10.60;100.00
55610;BME280;41486;52.502;13.486;2024-03-02T18:20:20;100231.31;;;10.64;100.00
55610;BME280;41486;52.502;13.486;2024-03-02T18:22:48;100234.84;;;10.53;100.00
55610;BME280;41486;52.502;13.486;2024-03-02T18:25:16;100228.38;;;10.46;100.00
55610;BME280;41486;52.502;13.486;2024-03-02T18:27:45;100235.34;;;10.35;100.00
55610;BME280;41486;52.502;13.486;2024-03-02T18:30:16;100243.47;;;10.32;100.00
55610;BME280;41486;52.502;13.486;2024-03-02T18:32:45;100239.75;;;10.35;100.00
55610;BME280;41486;52.502;13.486;2024-03-02T18:35:13;100233.09;;;10.31;100.00
55610;BME280;41486;52.502;13.486;2024-03-02T18:37:41;100235.59;;;10.32;100.00
55610;BME280;41486;52.502;13.486;2024-03-02T18:40:12;100238.94;;;10.34;100.00
55610;BME280;41486;52.502;13.486;2024-03-02T18:42:42;100238.22;;;10.32;100.00
55610;BME280;41486;52.502;13.486;2024-03-02T18:45:10;100241.22;;;10.27;100.00
55610;BME280;41486;52.502;13.486;2024-03-02T18:47:40;100230.47;;;10.31;100.00
55610;BME280;41486;52.502;13.486;2024-03-02T18:50:09;100231.06;;;10.34;100.00
55610;BME280;41486;52.502;13.486;2024-03-02T18:52:37;100229.38;;;10.33;100.00
55610;BME280;41486;52.502;13.486;2024-03-02T18:55:06;100222.09;;;10.25;100.00
55610;BME280;41486;52.502;13.486;2024-03-02T18:57:34;100220.13;;;10.18;100.00
55610;BME280;41486;52.502;13.486;2024-03-02T19:00:05;100216.53;;;10.19;100.00
55610;BME280;41486;52.502;13.486;2024-03-02T19:02:40;100217.50;;;10.06;100.00
55610;BME280;41486;52.502;13.486;2024-03-02T19:05:09;100219.19;;;10.07;100.00
55610;BME280;41486;52.502;13.486;2024-03-02T19:07:37;100210.94;;;10.12;100.00
55610;BME280;41486;52.502;13.486;2024-03-02T19:10:06;100209.31;;;10.00;100.00
55610;BME280;41486;52.502;13.486;2024-03-02T19:12:37;100214.22;;;9.93;100.00
55610;BME280;41486;52.502;13.486;2024-03-02T19:15:09;100211.94;;;10.00;100.00
55610;BME280;41486;52.502;13.486;2024-03-02T19:17:39;100219.34;;;9.94;100.00
55610;BME280;41486;52.502;13.486;2024-03-02T19:20:08;100214.44;;;9.90;100.00
55610;BME280;41486;52.502;13.486;2024-03-02T19:22:38;100207.88;;;9.95;100.00
55610;BME280;41486;52.502;13.486;2024-03-02T19:25:09;100210.63;;;9.94;100.00
55610;BME280;41486;52.502;13.486;2024-03-02T19:27:38;100206.34;;;9.93;100.00
55610;BME280;41486;52.502;13.486;2024-03-02T19:30:10;100205.00;;;9.99;100.00
55610;BME280;41486;52.502;13.486;2024-03-02T19:32:41;100208.81;;;10.06;100.00
55610;BME280;41486;52.502;13.486;2024-03-02T19:35:09;100205.66;;;10.12;100.00
55610;BME280;41486;52.502;13.486;2024-03-02T19:37:38;100202.00;;;10.03;100.00
55610;BME280;41486;52.502;13.486;2024-03-02T19:40:08;100196.47;;;10.06;100.00
55610;BME280;41486;52.502;13.486;2024-03-02T19:42:37;100204.16;;;9.98;100.00
55610;BME280;41486;52.502;13.486;2024-03-02T19:45:06;100205.84;;;9.99;100.00
55610;BME280;41486;52.502;13.486;2024-03-02T19:47:34;100196.84;;;10.02;100.00
55610;BME280;41486;52.502;13.486;2024-03-02T19:50:05;100195.59;;;9.96;100.00
55610;BME280;41486;52.502;13.486;2024-03-02T19:52:35;100196.47;;;10.06;100.00
55610;BME280;41486;52.502;13.486;2024-03-02T19:55:04;100195.09;;;9.91;100.00
55610;BME280;41486;52.502;13.486;2024-03-02T19:57:33;100192.94;;;9.96;100.00
55610;BME280;41486;52.502;13.486;2024-03-02T20:00:03;100186.03;;;9.84;100.00
55610;BME280;41486;52.502;13.486;2024-03-02T20:02:33;100180.91;;;9.82;100.00
55610;BME280;41486;52.502;13.486;2024-03-02T20:05:01;100184.13;;;9.86;100.00
55610;BME280;41486;52.502;13.486;2024-03-02T20:07:32;100182.84;;;9.80;100.00
55610;BME280;41486;52.502;13.486;2024-03-02T20:10:01;100182.16;;;9.67;100.00
55610;BME280;41486;52.502;13.486;2024-03-02T20:12:34;100179.91;;;9.62;100.00
55610;BME280;41486;52.502;13.486;2024-03-02T20:15:02;100182.28;;;9.65;100.00
55610;BME280;41486;52.502;13.486;2024-03-02T20:17:31;100178.94;;;9.63;100.00
55610;BME280;41486;52.502;13.486;2024-03-02T20:19:59;100179.16;;;9.71;100.00
55610;BME280;41486;52.502;13.486;2024-03-02T20:22:27;100177.06;;;9.86;100.00
55610;BME280;41486;52.502;13.486;2024-03-02T20:24:57;100182.25;;;9.76;100.00
55610;BME280;41486;52.502;13.486;2024-03-02T20:27:25;100177.63;;;9.69;100.00
55610;BME280;41486;52.502;13.486;2024-03-02T20:29:53;100187.28;;;9.68;100.00
55610;BME280;41486;52.502;13.486;2024-03-02T20:32:21;100183.84;;;9.68;100.00
55610;BME280;41486;52.502;13.486;2024-03-02T20:34:49;100182.25;;;9.76;100.00
55610;BME280;41486;52.502;13.486;2024-03-02T20:37:17;100175.94;;;9.68;100.00
55610;BME280;41486;52.502;13.486;2024-03-02T20:39:50;100171.50;;;9.79;100.00
55610;BME280;41486;52.502;13.486;2024-03-02T20:42:21;100174.00;;;9.81;100.00
55610;BME280;41486;52.502;13.486;2024-03-02T20:44:49;100176.59;;;9.92;100.00
55610;BME280;41486;52.502;13.486;2024-03-02T20:47:17;100173.63;;;9.74;100.00
55610;BME280;41486;52.502;13.486;2024-03-02T20:49:46;100168.88;;;9.79;100.00
55610;BME280;41486;52.502;13.486;2024-03-02T20:52:14;100176.38;;;9.84;100.00
55610;BME280;41486;52.502;13.486;2024-03-02T20:54:42;100177.22;;;9.85;100.00
55610;BME280;41486;52.502;13.486;2024-03-02T20:57:10;100171.13;;;9.84;100.00
55610;BME280;41486;52.502;13.486;2024-03-02T20:59:40;100164.50;;;9.90;100.00
55610;BME280;41486;52.502;13.486;2024-03-02T21:02:08;100159.53;;;9.87;100.00
55610;BME280;41486;52.502;13.486;2024-03-02T21:04:36;100161.81;;;9.80;100.00
55610;BME280;41486;52.502;13.486;2024-03-02T21:07:04;100166.47;;;9.88;100.00
55610;BME280;41486;52.502;13.486;2024-03-02T21:09:33;100167.72;;;9.93;100.00
55610;BME280;41486;52.502;13.486;2024-03-02T21:12:01;100175.38;;;9.64;100.00
55610;BME280;41486;52.502;13.486;2024-03-02T21:14:31;100169.84;;;9.67;100.00
55610;BME280;41486;52.502;13.486;2024-03-02T21:17:03;100168.88;;;9.68;100.00
55610;BME280;41486;52.502;13.486;2024-03-02T21:19:31;100168.16;;;9.77;100.00
55610;BME280;41486;52.502;13.486;2024-03-02T21:21:59;100179.03;;;9.73;100.00
55610;BME280;41486;52.502;13.486;2024-03-02T21:24:30;100175.00;;;9.57;100.00
55610;BME280;41486;52.502;13.486;2024-03-02T21:26:58;100164.00;;;9.63;100.00
55610;BME280;41486;52.502;13.486;2024-03-02T21:29:26;100169.38;;;9.73;100.00
55610;BME280;41486;52.502;13.486;2024-03-02T21:31:54;100164.03;;;9.52;100.00
55610;BME280;41486;52.502;13.486;2024-03-02T21:34:24;100166.91;;;9.60;100.00
55610;BME280;41486;52.502;13.486;2024-03-02T21:36:52;100163.31;;;9.50;100.00
55610;BME280;41486;52.502;13.486;2024-03-02T21:39:20;100164.25;;;9.60;100.00
55610;BME280;41486;52.502;13.486;2024-03-02T21:42:04;100159.16;;;9.47;100.00
55610;BME280;41486;52.502;13.486;2024-03-02T21:44:33;100152.91;;;9.60;100.00
55610;BME280;41486;52.502;13.486;2024-03-02T21:47:02;100153.25;;;9.67;100.00
55610;BME280;41486;52.502;13.486;2024-03-02T21:49:34;100162.47;;;9.61;100.00
55610;BME280;41486;52.502;13.486;2024-03-02T21:52:02;100154.22;;;9.66;100.00
55610;BME280;41486;52.502;13.486;2024-03-02T21:54:31;100154.06;;;9.67;100.00
55610;BME280;41486;52.502;13.486;2024-03-02T21:56:59;100161.63;;;9.60;100.00
55610;BME280;41486;52.502;13.486;2024-03-02T21:59:29;100149.97;;;9.42;100.00
55610;BME280;41486;52.502;13.486;2024-03-02T22:01:57;100155.81;;;9.45;100.00
55610;BME280;41486;52.502;13.486;2024-03-02T22:04:25;100146.13;;;9.46;100.00
55610;BME280;41486;52.502;13.486;2024-03-02T22:06:55;100154.22;;;9.66;100.00
55610;BME280;41486;52.502;13.486;2024-03-02T22:09:23;100151.06;;;9.39;100.00
55610;BME280;41486;52.502;13.486;2024-03-02T22:11:51;100150.09;;;9.40;100.00
55610;BME280;41486;52.502;13.486;2024-03-02T22:14:19;100149.88;;;9.32;100.00
55610;BME280;41486;52.502;13.486;2024-03-02T22:16:47;100146.03;;;9.36;100.00
55610;BME280;41486;52.502;13.486;2024-03-02T22:19:15;100144.94;;;9.39;100.00
55610;BME280;41486;52.502;13.486;2024-03-02T22:21:43;100138.91;;;9.15;100.00
55610;BME280;41486;52.502;13.486;2024-03-02T22:24:14;100133.28;;;8.97;100.00
55610;BME280;41486;52.502;13.486;2024-03-02T22:26:43;100134.97;;;8.98;100.00
55610;BME280;41486;52.502;13.486;2024-03-02T22:29:11;100135.91;;;9.09;100.00
55610;BME280;41486;52.502;13.486;2024-03-02T22:31:39;100134.84;;;9.11;100.00
55610;BME280;41486;52.502;13.486;2024-03-02T22:34:07;100128.13;;;9.19;100.00
55610;BME280;41486;52.502;13.486;2024-03-02T22:36:35;100126.00;;;9.12;100.00
55610;BME280;41486;52.502;13.486;2024-03-02T22:39:03;100129.94;;;9.18;100.00
55610;BME280;41486;52.502;13.486;2024-03-02T22:41:32;100129.00;;;9.19;100.00
55610;BME280;41486;52.502;13.486;2024-03-02T22:44:00;100126.22;;;9.09;100.00
55610;BME280;41486;52.502;13.486;2024-03-02T22:46:28;100122.19;;;9.05;100.00
55610;BME280;41486;52.502;13.486;2024-03-02T22:48:57;100121.84;;;9.21;100.00
55610;BME280;41486;52.502;13.486;2024-03-02T22:51:26;100124.34;;;9.23;100.00
55610;BME280;41486;52.502;13.486;2024-03-02T22:53:54;100121.44;;;9.26;100.00
55610;BME280;41486;52.502;13.486;2024-03-02T22:56:22;100121.59;;;9.13;100.00
55610;BME280;41486;52.502;13.486;2024-03-02T22:58:51;100118.22;;;9.22;100.00
55610;BME280;41486;52.502;13.486;2024-03-02T23:01:19;100119.41;;;9.29;100.00
55610;BME280;41486;52.502;13.486;2024-03-02T23:03:49;100119.31;;;9.20;100.00
55610;BME280;41486;52.502;13.486;2024-03-02T23:06:17;100121.22;;;9.18;100.00
55610;BME280;41486;52.502;13.486;2024-03-02T23:08:46;100113.84;;;9.23;100.00
55610;BME280;41486;52.502;13.486;2024-03-02T23:11:14;100119.31;;;9.20;100.00
55610;BME280;41486;52.502;13.486;2024-03-02T23:13:42;100111.50;;;9.52;100.00
55610;BME280;41486;52.502;13.486;2024-03-02T23:16:11;100121.22;;;9.29;100.00
55610;BME280;41486;52.502;13.486;2024-03-02T23:18:40;100114.31;;;9.17;100.00
55610;BME280;41486;52.502;13.486;2024-03-02T23:21:08;100110.50;;;9.21;100.00
55610;BME280;41486;52.502;13.486;2024-03-02T23:23:36;100105.97;;;9.11;100.00
55610;BME280;41486;52.502;13.486;2024-03-02T23:26:04;100110.59;;;9.30;100.00
55610;BME280;41486;52.502;13.486;2024-03-02T23:28:33;100113.84;;;9.23;100.00
55610;BME280;41486;52.502;13.486;2024-03-02T23:31:01;100109.53;;;9.22;100.00
55610;BME280;41486;52.502;13.486;2024-03-02T23:33:32;100102.97;;;9.27;100.00
55610;BME280;41486;52.502;13.486;2024-03-02T23:36:01;100108.94;;;9.18;100.00
55610;BME280;41486;52.502;13.486;2024-03-02T23:38:29;100104.06;;;9.25;100.00
55610;BME280;41486;52.502;13.486;2024-03-02T23:40:57;100102.38;;;9.12;100.00
55610;BME280;41486;52.502;13.486;2024-03-02T23:43:37;100098.56;;;9.05;100.00
55610;BME280;41486;52.502;13.486;2024-03-02T23:46:06;100107.28;;;9.06;100.00
55610;BME280;41486;52.502;13.486;2024-03-02T23:48:36;100102.88;;;9.06;100.00
55610;BME280;41486;52.502;13.486;2024-03-02T23:51:05;100101.91;;;9.07;100.00
55610;BME280;41486;52.502;13.486;2024-03-02T23:53:33;100104.06;;;9.13;100.00
55610;BME280;41486;52.502;13.486;2024-03-02T23:56:08;100094.75;;;9.09;100.00
55610;BME280;41486;52.502;13.486;2024-03-02T23:58:37;100092.38;;;8.95;100.00
